Time;durP1;ratioP1;P1;durP2;ratioP2;P2;SDS_P1;SDS_P2;PMS_P1;PMS_P2;Temp;Humidity;BMP_temperature;BMP_pressure;BME280_temperature;BME280_humidity;BME280_pressure;Samples;Min_cycle;Max_cycle;Signal;HPM_P1;HPM_P2
2023/04/15 00:02:20;;;;;;;16.47;10.77;;;;;;;7.14;100.00;92029.06;5113043;28;21307;-75
2023/04/15 00:04:46;;;;;;;10.30;9.60;;;;;;;7.07;100.00;92009.63;5109528;28;20224;-74
2023/04/15 00:07:12;;;;;;;10.97;10.37;;;;;;;7.27;100.00;92041.41;5110839;28;20188;-75
2023/04/15 00:09:38;;;;;;;9.77;9.07;;;;;;;7.04;100.00;92008.38;5111836;28;20282;-74
2023/04/15 00:12:04;;;;;;;11.10;10.50;;;;;;;6.93;100.00;92011.28;5111791;28;20188;-72
2023/04/15 00:14:30;;;;;;;10.33;9.73;;;;;;;7.23;100.00;92042.22;5111028;28;20188;-74
2023/04/15 00:16:56;;;;;;;10.10;9.50;;;;;;;7.15;100.00;92038.38;5111050;28;20195;-73
2023/04/15 00:19:23;;;;;;;10.10;9.43;;;;;;;7.24;100.00;92060.13;5109901;28;20212;-74
2023/04/15 00:21:48;;;;;;;9.87;9.17;;;;;;;7.14;100.00;92057.63;5108006;28;20211;-74
2023/04/15 00:24:13;;;;;;;10.67;10.17;;;;;;;7.26;100.00;92063.22;5110387;28;20210;-74
2023/04/15 00:26:39;;;;;;;9.47;9.07;;;;;;;7.53;100.00;92054.97;5111673;28;20228;-74
2023/04/15 00:29:05;;;;;;;9.33;8.93;;;;;;;7.41;100.00;92013.75;5110472;28;20274;-73
2023/04/15 00:31:31;;;;;;;11.10;10.17;;;;;;;7.62;100.00;92053.31;5110038;28;20220;-74
2023/04/15 00:33:57;;;;;;;10.47;9.87;;;;;;;7.59;100.00;92049.47;5109968;28;20214;-74
2023/04/15 00:36:23;;;;;;;11.73;10.63;;;;;;;7.50;100.00;92019.91;5110836;28;20227;-74
2023/04/15 00:38:48;;;;;;;10.97;10.47;;;;;;;7.52;100.00;92048.19;5109983;28;20187;-74
2023/04/15 00:41:14;;;;;;;12.83;11.93;;;;;;;7.39;100.00;92049.59;5110045;28;20227;-74
2023/04/15 00:43:40;;;;;;;12.50;11.70;;;;;;;7.12;100.00;92028.56;5111300;28;20195;-74
2023/04/15 00:46:06;;;;;;;13.20;12.20;;;;;;;7.23;100.00;92066.38;5109410;28;20764;-74
2023/04/15 00:48:32;;;;;;;12.47;11.70;;;;;;;7.23;100.00;92061.16;5111471;28;20669;-75
2023/04/15 00:50:57;;;;;;;11.33;10.53;;;;;;;7.26;100.00;92050.25;5108926;28;20231;-74
2023/04/15 00:53:22;;;;;;;12.10;11.10;;;;;;;7.26;100.00;92060.63;5110017;28;20191;-74
2023/04/15 00:55:49;;;;;;;11.40;10.50;;;;;;;7.27;100.00;92056.97;5110112;28;21011;-74
2023/04/15 00:58:15;;;;;;;10.97;10.30;;;;;;;7.24;100.00;92065.31;5110244;28;20198;-74
2023/04/15 01:00:41;;;;;;;10.93;9.93;;;;;;;7.22;100.00;92071.81;5108314;28;20224;-74
2023/04/15 01:03:07;;;;;;;11.23;10.57;;;;;;;7.22;100.00;92044.03;5109507;28;20216;-74
2023/04/15 01:05:33;;;;;;;11.23;10.27;;;;;;;7.28;100.00;92071.53;5109833;28;20227;-74
2023/04/15 01:07:59;;;;;;;10.77;9.87;;;;;;;7.47;100.00;92074.22;5109376;28;20275;-74
2023/04/15 01:10:24;;;;;;;11.73;10.87;;;;;;;7.42;100.00;92046.50;5109928;28;20237;-74
2023/04/15 01:12:50;;;;;;;11.03;10.43;;;;;;;7.66;100.00;92062.88;5108224;28;20195;-73
2023/04/15 01:15:15;;;;;;;9.07;8.67;;;;;;;7.64;100.00;92062.38;5108236;28;20228;-73
2023/04/15 01:17:41;;;;;;;10.23;9.73;;;;;;;7.44;100.00;92046.97;5109670;28;20198;-74
2023/04/15 01:20:10;;;;;;;10.63;10.13;;;;;;;7.35;100.00;92047.81;5109284;28;20236;-74
2023/04/15 01:22:35;;;;;;;9.50;8.90;;;;;;;7.48;100.00;92053.19;5110142;28;20184;-74
2023/04/15 01:25:08;;;;;;;10.00;9.30;;;;;;;7.35;100.00;92046.00;5107636;28;20220;-74
2023/04/15 01:27:34;;;;;;;10.43;9.93;;;;;;;7.23;100.00;92050.00;5109037;28;20184;-74
2023/04/15 01:30:00;;;;;;;10.57;10.03;;;;;;;6.99;100.00;92013.59;5108639;28;20976;-74
2023/04/15 01:32:26;;;;;;;11.10;10.20;;;;;;;6.99;100.00;92043.97;5110653;28;20196;-74
2023/04/15 01:34:51;;;;;;;10.53;9.77;;;;;;;7.02;100.00;92049.38;5112562;28;20269;-74
2023/04/15 01:37:16;;;;;;;10.80;10.20;;;;;;;6.92;100.00;92044.25;5114498;28;20200;-74
2023/04/15 01:39:42;;;;;;;10.77;10.27;;;;;;;6.89;100.00;92031.06;5113861;28;20299;-72
2023/04/15 01:42:07;;;;;;;9.70;9.10;;;;;;;6.87;100.00;92041.69;5112762;28;20303;-73
2023/04/15 01:44:32;;;;;;;9.87;9.47;;;;;;;6.63;100.00;92056.34;5111998;28;20260;-74
2023/04/15 01:46:58;;;;;;;11.83;11.03;;;;;;;6.74;100.00;92062.28;5113116;28;20196;-73
2023/04/15 01:49:23;;;;;;;11.40;10.70;;;;;;;6.72;100.00;92044.41;5116517;28;20191;-73
2023/04/15 01:51:49;;;;;;;11.93;10.87;;;;;;;6.71;100.00;92063.56;5113752;28;20210;-74
2023/04/15 01:54:14;;;;;;;10.83;10.23;;;;;;;6.68;100.00;92066.72;5113516;28;20200;-73
2023/04/15 01:56:40;;;;;;;10.27;9.57;;;;;;;6.62;100.00;92060.00;5112673;28;21261;-73
2023/04/15 01:59:05;;;;;;;10.17;9.63;;;;;;;6.64;100.00;92068.28;5113065;28;20179;-73
2023/04/15 02:01:30;;;;;;;10.23;9.47;;;;;;;6.66;100.00;92074.00;5113424;28;20239;-74
2023/04/15 02:03:56;;;;;;;10.87;10.30;;;;;;;6.75;100.00;92077.56;5113131;28;20225;-73
2023/04/15 02:06:21;;;;;;;10.37;9.67;;;;;;;6.76;100.00;92068.75;5112721;28;20231;-74
2023/04/15 02:08:47;;;;;;;10.33;9.83;;;;;;;6.70;100.00;92041.28;5111870;28;20198;-74
2023/04/15 02:11:12;;;;;;;10.70;10.20;;;;;;;6.80;100.00;92059.41;5114199;28;20650;-74
2023/04/15 02:13:37;;;;;;;11.27;10.47;;;;;;;6.55;100.00;92012.84;5113608;28;20214;-73
2023/04/15 02:16:03;;;;;;;11.50;10.53;;;;;;;6.66;100.00;92040.28;5112273;28;20224;-74
2023/04/15 02:18:28;;;;;;;10.37;9.77;;;;;;;6.71;100.00;92053.19;5113690;28;20194;-74
2023/04/15 02:20:56;;;;;;;11.37;10.67;;;;;;;6.55;100.00;92036.19;5111442;28;20223;-74
2023/04/15 02:23:21;;;;;;;11.73;10.97;;;;;;;6.60;100.00;92041.34;5112106;28;20207;-74
2023/04/15 02:25:47;;;;;;;10.93;10.33;;;;;;;6.71;100.00;92060.97;5111771;28;20232;-74
2023/04/15 02:28:12;;;;;;;10.30;9.77;;;;;;;6.60;100.00;92061.31;5112828;28;20199;-73
2023/04/15 02:30:39;;;;;;;11.93;10.93;;;;;;;6.55;100.00;92018.03;5111454;28;20238;-74
2023/04/15 02:33:06;;;;;;;10.00;9.33;;;;;;;6.54;100.00;92040.59;5112587;28;20210;-73
2023/04/15 02:35:31;;;;;;;12.47;11.67;;;;;;;6.49;100.00;92034.66;5112456;28;20224;-74
2023/04/15 02:37:56;;;;;;;10.40;9.90;;;;;;;6.35;100.00;92028.53;5112530;28;20206;-72
2023/04/15 02:40:22;;;;;;;10.40;9.90;;;;;;;6.38;100.00;92049.47;5111341;28;20224;-74
2023/04/15 02:42:47;;;;;;;10.23;9.43;;;;;;;6.26;100.00;92038.66;5112742;28;20191;-73
2023/04/15 02:45:13;;;;;;;8.83;8.43;;;;;;;6.32;100.00;92049.75;5111208;28;20228;-74
2023/04/15 02:47:40;;;;;;;9.00;8.60;;;;;;;6.19;100.00;92051.13;5111834;28;20822;-74
2023/04/15 02:50:11;;;;;;;10.00;9.43;;;;;;;6.18;100.00;92053.97;5110581;28;20219;-73
2023/04/15 02:52:40;;;;;;;8.73;8.23;;;;;;;6.07;100.00;92026.56;5113221;28;20271;-74
2023/04/15 02:55:05;;;;;;;9.63;9.23;;;;;;;6.11;100.00;92027.56;5111746;28;20211;-74
2023/04/15 02:57:31;;;;;;;9.10;8.60;;;;;;;6.19;100.00;92042.59;5112188;28;20186;-74
2023/04/15 02:59:56;;;;;;;8.73;8.33;;;;;;;6.09;100.00;92045.19;5111652;28;20629;-75
2023/04/15 03:02:21;;;;;;;9.07;8.67;;;;;;;5.91;100.00;92053.56;5113239;28;20240;-74
2023/04/15 03:04:47;;;;;;;9.20;8.47;;;;;;;6.03;100.00;92064.41;5111995;28;20223;-74
2023/04/15 03:07:13;;;;;;;9.20;8.43;;;;;;;6.02;100.00;92027.34;5112598;28;21522;-74
2023/04/15 03:09:40;;;;;;;10.17;9.67;;;;;;;6.36;100.00;92063.75;5112236;28;20181;-74
2023/04/15 03:12:05;;;;;;;9.93;9.43;;;;;;;6.21;100.00;92049.03;5112457;28;20172;-74
2023/04/15 03:14:31;;;;;;;9.40;9.00;;;;;;;6.21;100.00;92063.84;5111217;28;20180;-69
2023/04/15 03:16:58;;;;;;;10.10;9.60;;;;;;;6.12;100.00;92057.63;5111446;28;20180;-70
2023/04/15 03:19:23;;;;;;;9.23;8.73;;;;;;;6.05;100.00;92078.66;5111754;28;20180;-69
2023/04/15 03:21:48;;;;;;;9.43;9.03;;;;;;;5.95;100.00;92064.94;5110888;28;20218;-70
2023/04/15 03:24:14;;;;;;;10.13;9.50;;;;;;;6.04;100.00;92077.09;5111945;28;20211;-69
2023/04/15 03:26:40;;;;;;;9.63;9.10;;;;;;;6.11;100.00;92080.19;5111575;28;20216;-70
2023/04/15 03:29:05;;;;;;;8.93;8.27;;;;;;;5.82;100.00;92058.47;5112042;28;20183;-70
2023/04/15 03:31:30;;;;;;;11.47;10.77;;;;;;;6.05;100.00;92083.03;5112292;28;20223;-70
2023/04/15 03:33:56;;;;;;;11.27;10.47;;;;;;;5.93;100.00;92087.75;5110390;28;20228;-70
2023/04/15 03:36:21;;;;;;;10.50;9.87;;;;;;;6.02;100.00;92093.94;5111383;28;20208;-70
2023/04/15 03:38:48;;;;;;;11.27;10.63;;;;;;;5.98;100.00;92103.25;5110769;28;20199;-69
2023/04/15 03:41:13;;;;;;;10.13;9.43;;;;;;;5.94;100.00;92090.06;5111314;28;20232;-68
2023/04/15 03:43:39;;;;;;;10.70;10.10;;;;;;;5.89;100.00;92103.03;5111683;28;20220;-70
2023/04/15 03:46:04;;;;;;;10.60;9.90;;;;;;;5.94;100.00;92112.59;5112181;28;20276;-70
2023/04/15 03:48:29;;;;;;;11.00;10.33;;;;;;;6.09;100.00;92122.94;5112035;28;20183;-68
2023/04/15 03:50:55;;;;;;;10.53;9.63;;;;;;;5.80;100.00;92134.88;5110601;28;20238;-69
2023/04/15 03:53:20;;;;;;;11.57;10.77;;;;;;;5.86;100.00;92128.66;5111009;28;20196;-71
2023/04/15 03:55:46;;;;;;;11.47;10.77;;;;;;;5.99;100.00;92122.97;5109913;28;20230;-70
2023/04/15 03:58:12;;;;;;;11.43;10.60;;;;;;;6.14;100.00;92128.09;5110755;28;20200;-70
2023/04/15 04:00:38;;;;;;;12.03;11.23;;;;;;;6.16;100.00;92124.19;5110242;28;20242;-70
2023/04/15 04:03:03;;;;;;;10.47;9.73;;;;;;;5.99;100.00;92110.00;5109523;28;20283;-69
2023/04/15 04:05:29;;;;;;;10.20;9.33;;;;;;;6.08;100.00;92121.38;5110184;28;20238;-69
2023/04/15 04:07:55;;;;;;;11.60;10.90;;;;;;;6.25;100.00;92121.84;5110974;28;20192;-69
2023/04/15 04:10:20;;;;;;;10.73;10.23;;;;;;;6.46;100.00;92123.31;5110591;28;20257;-69
2023/04/15 04:12:45;;;;;;;8.73;8.17;;;;;;;6.48;100.00;92113.47;5112677;28;20218;-69
2023/04/15 04:15:11;;;;;;;10.00;9.50;;;;;;;6.57;100.00;92117.06;5112266;28;20227;-69
2023/04/15 04:17:36;;;;;;;10.50;9.77;;;;;;;6.60;100.00;92116.53;5110304;28;20196;-70
2023/04/15 04:20:02;;;;;;;10.20;9.70;;;;;;;6.71;100.00;92128.41;5109968;28;20223;-70
2023/04/15 04:22:27;;;;;;;10.83;9.67;;;;;;;6.69;100.00;92111.59;5110793;28;20199;-70
2023/04/15 04:24:52;;;;;;;11.97;10.87;;;;;;;6.61;100.00;92105.13;5112331;28;20220;-71
2023/04/15 04:27:18;;;;;;;11.20;10.10;;;;;;;6.81;100.00;92115.41;5111291;28;20199;-70
2023/04/15 04:29:43;;;;;;;10.37;9.57;;;;;;;7.05;100.00;92131.88;5110331;28;20266;-69
2023/04/15 04:32:09;;;;;;;10.60;9.70;;;;;;;7.00;100.00;92142.31;5109661;28;20183;-69
2023/04/15 04:34:35;;;;;;;11.67;10.63;;;;;;;6.73;100.00;92125.56;5109519;28;20173;-76
2023/04/15 04:37:00;;;;;;;11.00;10.20;;;;;;;6.51;100.00;92074.06;5111256;28;20191;-78
2023/04/15 04:39:25;;;;;;;12.43;11.57;;;;;;;6.99;100.00;92135.53;5109831;28;20176;-76
2023/04/15 04:41:51;;;;;;;12.47;11.43;;;;;;;6.97;100.00;92137.66;5105966;28;20214;-76
2023/04/15 04:44:17;;;;;;;11.83;10.93;;;;;;;6.93;100.00;92134.03;5107175;28;20260;-75
2023/04/15 04:46:42;;;;;;;12.07;11.17;;;;;;;6.89;100.00;92117.44;5108650;28;20234;-72
2023/04/15 04:49:07;;;;;;;11.33;10.40;;;;;;;7.04;100.00;92139.94;5107379;28;20192;-72
2023/04/15 04:51:33;;;;;;;11.50;10.70;;;;;;;6.72;100.00;92114.41;5108135;28;20248;-72
2023/04/15 04:53:59;;;;;;;13.67;12.57;;;;;;;7.05;100.00;92115.53;5107246;28;20259;-70
2023/04/15 04:56:24;;;;;;;13.23;11.93;;;;;;;7.30;100.00;92136.91;5108845;28;20228;-72
2023/04/15 04:58:50;;;;;;;12.33;11.30;;;;;;;7.51;100.00;92150.53;5109062;28;20223;-70
2023/04/15 05:01:15;;;;;;;12.83;11.80;;;;;;;7.42;99.81;92146.97;5108122;28;20267;-70
2023/04/15 05:03:41;;;;;;;11.97;11.17;;;;;;;7.34;95.67;92161.31;5108769;28;20188;-70
2023/04/15 05:06:07;;;;;;;12.30;11.40;;;;;;;7.62;97.10;92183.97;5107403;28;20220;-69
2023/04/15 05:08:33;;;;;;;12.53;11.47;;;;;;;7.83;96.70;92177.56;5111638;28;20765;-68
2023/04/15 05:10:58;;;;;;;12.27;11.17;;;;;;;7.99;94.90;92199.03;5109538;28;20251;-67
2023/04/15 05:13:24;;;;;;;12.50;11.30;;;;;;;8.02;93.60;92196.66;5109801;28;20219;-67
2023/04/15 05:15:49;;;;;;;13.43;12.13;;;;;;;8.07;93.04;92201.81;5109438;28;20228;-68
2023/04/15 05:18:14;;;;;;;12.37;11.23;;;;;;;8.11;90.71;92196.81;5105427;28;20200;-71
2023/04/15 05:20:40;;;;;;;12.17;11.17;;;;;;;8.20;90.30;92205.63;5108650;28;20242;-70
2023/04/15 05:23:05;;;;;;;12.73;11.20;;;;;;;7.99;89.77;92191.22;5108179;28;20199;-70
2023/04/15 05:25:31;;;;;;;12.87;11.97;;;;;;;7.96;89.96;92205.53;5108544;28;20237;-68
2023/04/15 05:27:56;;;;;;;11.17;10.33;;;;;;;7.72;85.89;92207.28;5108530;28;20207;-70
2023/04/15 05:30:21;;;;;;;12.63;11.53;;;;;;;7.79;85.69;92205.16;5106811;28;20212;-70
2023/04/15 05:32:47;;;;;;;11.40;10.60;;;;;;;7.82;84.43;92203.81;5109048;28;20208;-70
2023/04/15 05:35:12;;;;;;;11.07;10.30;;;;;;;8.15;85.50;92206.41;5108215;28;20253;-71
2023/04/15 05:37:38;;;;;;;9.70;9.13;;;;;;;8.37;83.02;92185.19;5108065;28;20197;-70
2023/04/15 05:40:03;;;;;;;10.33;9.57;;;;;;;8.61;80.59;92196.38;5106705;28;20220;-70
2023/04/15 05:42:29;;;;;;;11.10;10.03;;;;;;;8.74;80.63;92205.38;5107875;28;20243;-70
2023/04/15 05:44:55;;;;;;;10.50;9.70;;;;;;;8.73;80.35;92198.63;5109046;28;20228;-71
2023/04/15 05:47:20;;;;;;;11.27;10.47;;;;;;;8.44;82.83;92200.47;5106306;28;20192;-70
2023/04/15 05:49:45;;;;;;;11.97;10.83;;;;;;;8.80;81.43;92197.22;5106481;28;20262;-70
2023/04/15 05:52:11;;;;;;;11.80;10.57;;;;;;;8.47;83.81;92189.53;5108497;28;20779;-70
2023/04/15 05:54:37;;;;;;;12.60;11.50;;;;;;;8.75;84.14;92196.50;5107937;28;20248;-70
2023/04/15 05:57:02;;;;;;;11.00;10.07;;;;;;;9.72;81.47;92219.25;5108075;28;20184;-70
2023/04/15 05:59:28;;;;;;;12.97;11.77;;;;;;;10.22;80.14;92204.69;5107150;28;20285;-71
2023/04/15 06:01:53;;;;;;;14.17;12.90;;;;;;;10.19;82.24;92216.50;5107621;28;20231;-71
2023/04/15 06:04:19;;;;;;;12.57;11.47;;;;;;;14.01;64.89;92234.69;5108132;28;20185;-71
2023/04/15 06:06:45;;;;;;;12.67;11.57;;;;;;;13.16;64.63;92231.88;5108493;28;20224;-72
2023/04/15 06:09:10;;;;;;;11.37;10.47;;;;;;;11.72;68.56;92233.22;5109503;28;20175;-72
2023/04/15 06:11:36;;;;;;;9.57;8.90;;;;;;;10.49;72.54;92220.44;5107731;28;20231;-71
2023/04/15 06:14:01;;;;;;;11.93;9.40;;;;;;;10.05;74.50;92215.63;5110245;28;20204;-72
2023/04/15 06:16:27;;;;;;;11.37;10.33;;;;;;;10.00;75.16;92210.50;5107027;28;20264;-71
2023/04/15 06:18:52;;;;;;;11.67;10.70;;;;;;;10.17;75.81;92234.25;5108863;28;21683;-71
2023/04/15 06:21:18;;;;;;;10.23;9.47;;;;;;;10.16;72.56;92237.94;5111155;28;20338;-70
2023/04/15 06:23:43;;;;;;;10.43;9.73;;;;;;;10.08;78.10;92225.53;5112483;28;20187;-68
2023/04/15 06:26:09;;;;;;;11.97;11.07;;;;;;;10.23;75.14;92227.88;5111378;28;20382;-71
2023/04/15 06:28:34;;;;;;;10.93;10.20;;;;;;;10.35;73.07;92248.31;5110641;28;20187;-72
2023/04/15 06:31:00;;;;;;;10.97;10.23;;;;;;;10.23;73.12;92243.53;5110707;28;20241;-71
2023/04/15 06:33:26;;;;;;;12.13;11.13;;;;;;;10.33;73.68;92253.03;5111781;28;20188;-70
2023/04/15 06:35:52;;;;;;;11.50;10.43;;;;;;;10.43;72.71;92256.25;5112700;28;20260;-70
2023/04/15 06:38:17;;;;;;;11.07;10.20;;;;;;;10.19;74.21;92258.22;5111593;28;21402;-70
2023/04/15 06:40:43;;;;;;;11.23;10.47;;;;;;;10.25;76.13;92251.88;5110492;28;20217;-71
2023/04/15 06:43:09;;;;;;;11.50;10.57;;;;;;;10.56;75.59;92258.16;5111595;28;20215;-71
2023/04/15 06:45:34;;;;;;;10.93;10.17;;;;;;;10.74;73.21;92267.75;5110360;28;20484;-70
2023/04/15 06:48:00;;;;;;;11.23;10.43;;;;;;;10.78;73.57;92273.97;5111665;28;20188;-72
2023/04/15 06:50:26;;;;;;;11.77;10.80;;;;;;;10.86;76.30;92270.66;5110344;28;20221;-68
2023/04/15 06:52:53;;;;;;;10.90;10.10;;;;;;;10.66;72.70;92278.09;5111887;28;20207;-71
2023/04/15 06:55:18;;;;;;;9.03;8.53;;;;;;;10.46;72.16;92270.59;5110232;28;20293;-71
2023/04/15 06:57:44;;;;;;;11.23;9.57;;;;;;;10.86;69.77;92262.06;5113003;28;20181;-70
2023/04/15 07:00:10;;;;;;;10.93;10.10;;;;;;;10.56;71.39;92259.97;5109816;28;20226;-72
2023/04/15 07:02:36;;;;;;;10.67;9.80;;;;;;;10.92;72.19;92263.53;5110508;28;20245;-71
2023/04/15 07:05:02;;;;;;;11.67;10.77;;;;;;;11.10;71.00;92273.91;5110496;28;20271;-70
2023/04/15 07:07:27;;;;;;;11.30;10.50;;;;;;;11.12;72.19;92286.66;5110703;28;20196;-71
2023/04/15 07:09:52;;;;;;;10.53;9.70;;;;;;;11.42;70.78;92285.31;5110934;28;20288;-71
2023/04/15 07:12:18;;;;;;;10.93;9.93;;;;;;;11.48;71.30;92278.94;5111602;28;20196;-71
2023/04/15 07:14:44;;;;;;;10.93;10.07;;;;;;;11.56;68.42;92283.50;5109099;28;20269;-71
2023/04/15 07:17:09;;;;;;;10.33;9.63;;;;;;;11.40;71.67;92262.09;5108581;28;20202;-71
2023/04/15 07:19:34;;;;;;;12.23;11.27;;;;;;;11.89;70.91;92272.59;5109232;28;20185;-70
2023/04/15 07:22:00;;;;;;;10.60;9.90;;;;;;;12.05;71.01;92278.28;5111477;28;20304;-70
2023/04/15 07:24:25;;;;;;;10.93;10.10;;;;;;;11.84;66.76;92293.66;5112108;28;20190;-71
2023/04/15 07:26:53;;;;;;;10.43;9.63;;;;;;;11.90;67.95;92282.03;5111465;28;21068;-71
2023/04/15 07:29:18;;;;;;;11.00;9.90;;;;;;;12.02;67.44;92290.13;5108208;28;20189;-69
2023/04/15 07:31:44;;;;;;;11.07;10.07;;;;;;;11.95;68.16;92283.75;5109964;28;20241;-69
2023/04/15 07:34:09;;;;;;;9.97;9.27;;;;;;;11.77;67.03;92264.50;5110996;28;20188;-71
2023/04/15 07:36:35;;;;;;;11.20;10.50;;;;;;;12.03;68.91;92291.66;5109204;28;21024;-69
2023/04/15 07:39:02;;;;;;;11.57;10.67;;;;;;;11.75;66.54;92274.47;5108691;28;20248;-69
2023/04/15 07:41:28;;;;;;;10.27;9.53;;;;;;;11.53;66.61;92273.63;5107956;28;20699;-69
2023/04/15 07:43:54;;;;;;;9.70;8.97;;;;;;;11.82;66.85;92282.72;5109678;28;20191;-68
2023/04/15 07:46:19;;;;;;;11.17;10.17;;;;;;;12.03;64.91;92288.28;5108076;28;20227;-69
2023/04/15 07:48:45;;;;;;;11.43;10.43;;;;;;;11.99;67.05;92297.78;5109432;28;20197;-68
2023/04/15 07:51:11;;;;;;;10.37;9.67;;;;;;;12.24;67.24;92297.25;5108779;28;20225;-69
2023/04/15 07:53:37;;;;;;;14.63;10.57;;;;;;;12.36;63.86;92295.66;5108121;28;20191;-70
2023/04/15 07:56:02;;;;;;;10.50;9.87;;;;;;;12.39;64.18;92299.53;5107874;28;20221;-70
2023/04/15 07:58:28;;;;;;;12.73;12.03;;;;;;;12.55;63.71;92308.56;5110242;28;20214;-68
2023/04/15 08:00:54;;;;;;;12.07;11.33;;;;;;;12.75;62.19;92305.47;5107154;28;20232;-69
2023/04/15 08:03:21;;;;;;;10.50;9.80;;;;;;;12.37;59.94;92299.06;5109517;28;20223;-69
2023/04/15 08:05:46;;;;;;;10.17;9.37;;;;;;;12.39;63.15;92294.31;5108892;28;20244;-68
2023/04/15 08:08:12;;;;;;;9.53;9.03;;;;;;;12.18;60.94;92267.03;5110537;28;20226;-70
2023/04/15 08:10:37;;;;;;;9.57;8.97;;;;;;;12.45;62.01;92285.25;5109290;28;20220;-70
2023/04/15 08:13:03;;;;;;;9.30;8.70;;;;;;;12.79;62.08;92309.06;5108279;28;20172;-71
2023/04/15 08:15:28;;;;;;;11.70;10.90;;;;;;;12.83;60.33;92281.97;5108482;28;20223;-74
2023/04/15 08:17:53;;;;;;;10.40;9.50;;;;;;;13.11;63.03;92295.69;5108480;28;20186;-69
2023/04/15 08:20:19;;;;;;;9.80;9.10;;;;;;;13.22;60.21;92314.56;5107474;28;20216;-71
2023/04/15 08:22:46;;;;;;;8.57;7.93;;;;;;;12.95;56.51;92307.59;5108558;28;20966;-66
2023/04/15 08:25:12;;;;;;;10.03;9.17;;;;;;;13.09;60.41;92310.94;5109525;28;20239;-68
2023/04/15 08:27:37;;;;;;;10.53;9.67;;;;;;;13.00;57.91;92298.88;5110272;28;20187;-68
2023/04/15 08:30:03;;;;;;;10.77;10.07;;;;;;;13.51;60.87;92315.63;5108491;28;20228;-69
2023/04/15 08:32:28;;;;;;;9.97;9.37;;;;;;;13.18;59.23;92301.31;5108729;28;20222;-71
2023/04/15 08:34:54;;;;;;;8.70;8.23;;;;;;;13.13;61.78;92298.81;5109176;28;20261;-67
2023/04/15 08:37:20;;;;;;;9.53;8.83;;;;;;;13.42;57.73;92304.31;5108093;28;21188;-67
2023/04/15 08:39:45;;;;;;;9.60;9.10;;;;;;;13.59;57.55;92304.38;5109677;28;21285;-66
2023/04/15 08:42:16;;;;;;;9.23;8.50;;;;;;;13.59;54.31;92296.50;5108966;28;20322;-66
2023/04/15 08:44:43;;;;;;;9.20;8.67;;;;;;;13.52;54.47;92295.41;5107601;28;20243;-66
2023/04/15 08:47:12;;;;;;;9.17;8.57;;;;;;;13.36;55.64;92297.66;5108983;28;20203;-68
2023/04/15 08:49:43;;;;;;;10.13;9.43;;;;;;;13.83;55.83;92293.50;5107787;28;20202;-69
2023/04/15 08:52:08;;;;;;;8.23;7.93;;;;;;;14.17;49.58;92293.56;5108375;28;20191;-67
2023/04/15 08:54:35;;;;;;;8.53;8.03;;;;;;;14.51;48.29;92287.59;5107747;28;20179;-69
2023/04/15 08:57:03;;;;;;;8.27;7.87;;;;;;;14.37;49.30;92285.88;5109741;28;20192;-66
2023/04/15 08:59:29;;;;;;;9.10;8.50;;;;;;;14.20;50.61;92275.34;5108642;28;20210;-67
2023/04/15 09:01:56;;;;;;;9.03;8.40;;;;;;;13.89;51.22;92285.19;5109376;28;20215;-66
2023/04/15 09:04:21;;;;;;;9.07;8.30;;;;;;;13.70;52.43;92276.81;5109098;28;20207;-68
2023/04/15 09:06:47;;;;;;;8.53;7.90;;;;;;;13.64;55.05;92256.25;5109029;28;20196;-67
2023/04/15 09:09:13;;;;;;;9.90;9.07;;;;;;;13.99;49.35;92290.13;5108264;28;20674;-69
2023/04/15 09:11:39;;;;;;;7.77;7.37;;;;;;;13.32;43.92;92267.13;5108643;28;20216;-67
2023/04/15 09:14:04;;;;;;;7.97;7.67;;;;;;;13.71;46.31;92262.59;5107636;28;20213;-67
2023/04/15 09:16:30;;;;;;;8.73;8.23;;;;;;;14.04;47.15;92249.84;5107075;28;20291;-68
2023/04/15 09:18:56;;;;;;;7.43;7.17;;;;;;;14.43;41.33;92253.13;5108339;28;20180;-69
2023/04/15 09:21:22;;;;;;;8.43;8.03;;;;;;;14.70;44.71;92259.91;5108484;28;20216;-67
2023/04/15 09:24:14;;;;;;;8.67;8.27;;;;;;;15.08;47.91;92266.00;5109439;28;20188;-68
2023/04/15 09:26:39;;;;;;;9.80;9.10;;;;;;;15.11;46.42;92260.13;5104194;28;20340;-68
2023/04/15 09:29:09;;;;;;;9.53;8.20;;;;;;;14.97;46.11;92271.91;5108397;28;20264;-73
2023/04/15 09:31:36;;;;;;;9.73;9.03;;;;;;;15.34;48.29;92264.06;5108899;28;20234;-72
2023/04/15 09:34:01;;;;;;;7.53;7.20;;;;;;;15.59;44.11;92254.56;5109017;28;20222;-71
2023/04/15 09:36:30;;;;;;;8.20;7.73;;;;;;;15.60;43.18;92250.81;5107716;28;20231;-70
2023/04/15 09:38:59;;;;;;;7.63;7.23;;;;;;;15.72;44.75;92266.72;5107958;28;20301;-72
2023/04/15 09:41:25;;;;;;;7.53;7.23;;;;;;;15.63;39.23;92250.97;5107858;28;20256;-73
2023/04/15 09:43:51;;;;;;;6.83;6.53;;;;;;;15.57;40.47;92259.34;5107725;28;20192;-72
2023/04/15 09:46:16;;;;;;;7.83;7.43;;;;;;;15.70;38.74;92277.53;5109623;28;20246;-71
2023/04/15 09:48:42;;;;;;;7.80;7.50;;;;;;;14.85;38.39;92275.16;5107855;28;20192;-68
2023/04/15 09:51:07;;;;;;;7.33;7.03;;;;;;;15.02;36.85;92280.41;5108413;28;20227;-70
2023/04/15 09:53:35;;;;;;;7.53;7.03;;;;;;;15.63;38.46;92285.19;5109599;28;20218;-69
2023/04/15 09:56:01;;;;;;;7.20;6.83;;;;;;;15.88;40.21;92286.13;5111755;28;20220;-68
2023/04/15 09:58:29;;;;;;;7.57;7.27;;;;;;;16.17;37.24;92272.97;5111407;28;20176;-69
2023/04/15 10:00:57;;;;;;;8.20;7.63;;;;;;;16.39;37.18;92262.09;5111472;28;20235;-69
2023/04/15 10:03:23;;;;;;;31.97;24.90;;;;;;;16.19;38.53;92262.88;5112623;28;20216;-70
2023/04/15 10:05:52;;;;;;;9.80;9.13;;;;;;;15.21;39.30;92232.69;5108120;28;20230;-72
2023/04/15 10:08:28;;;;;;;11.20;10.40;;;;;;;15.66;40.47;92258.22;5110154;28;20195;-72
2023/04/15 10:10:54;;;;;;;9.10;8.43;;;;;;;15.67;37.77;92261.63;5111324;28;20319;-72
2023/04/15 10:13:24;;;;;;;10.00;9.30;;;;;;;16.27;37.17;92250.72;5110336;28;20218;-70
2023/04/15 10:15:57;;;;;;;9.90;9.13;;;;;;;16.21;38.39;92255.41;5110223;28;20224;-70
2023/04/15 10:18:25;;;;;;;9.10;8.60;;;;;;;16.58;39.07;92249.25;5109252;28;20214;-68
2023/04/15 10:20:52;;;;;;;7.77;7.47;;;;;;;17.03;37.25;92252.72;5109136;28;20303;-70
2023/04/15 10:23:19;;;;;;;7.87;7.57;;;;;;;17.59;35.97;92254.59;5110838;28;20188;-68
2023/04/15 10:25:50;;;;;;;8.00;7.50;;;;;;;17.36;36.39;92250.81;5110848;28;20228;-66
2023/04/15 10:28:16;;;;;;;8.63;8.27;;;;;;;17.75;36.09;92238.09;5109845;28;20191;-67
2023/04/15 10:30:42;;;;;;;7.33;6.93;;;;;;;17.26;35.48;92240.66;5111519;28;20254;-67
2023/04/15 10:33:09;;;;;;;7.90;7.53;;;;;;;16.59;33.71;92237.63;5109518;28;20169;-67
2023/04/15 10:35:36;;;;;;;8.83;8.37;;;;;;;16.96;35.83;92241.94;5110327;28;20246;-67
2023/04/15 10:38:01;;;;;;;7.53;7.23;;;;;;;17.00;34.15;92242.81;5110757;28;20169;-70
2023/04/15 10:40:30;;;;;;;8.63;8.13;;;;;;;17.20;34.67;92241.97;5107515;28;20225;-69
2023/04/15 10:43:00;;;;;;;9.40;8.80;;;;;;;16.80;34.97;92242.84;5110504;28;20275;-70
2023/04/15 10:45:35;;;;;;;9.10;8.40;;;;;;;16.56;34.66;92233.00;5110920;28;20214;-68
2023/04/15 10:48:02;;;;;;;8.40;7.80;;;;;;;16.83;36.58;92240.34;5110743;28;20257;-75
2023/04/15 10:50:30;;;;;;;8.83;8.33;;;;;;;17.25;37.16;92239.13;5110298;27;20227;-75
2023/04/15 10:52:56;;;;;;;7.97;7.63;;;;;;;17.78;35.18;92238.19;5110302;28;20214;-74
2023/04/15 10:55:24;;;;;;;12.73;10.60;;;;;;;17.53;32.64;92229.53;5110541;27;20374;-74
2023/04/15 10:57:54;;;;;;;7.87;7.47;;;;;;;16.93;33.45;92226.78;5110206;28;20190;-74
2023/04/15 11:00:24;;;;;;;9.17;8.60;;;;;;;16.47;33.41;92234.94;5109991;28;20283;-75
2023/04/15 11:02:55;;;;;;;8.17;7.77;;;;;;;16.92;31.99;92230.47;5126330;28;20232;-75
2023/04/15 11:05:22;;;;;;;7.80;7.17;;;;;;;15.94;30.92;92206.66;5106877;28;20245;-74
2023/04/15 11:07:51;;;;;;;7.90;7.50;;;;;;;16.06;31.17;92232.28;5091423;28;20232;-74
2023/04/15 11:10:17;;;;;;;8.13;7.80;;;;;;;16.18;30.92;92242.13;5092021;28;20224;-74
2023/04/15 11:12:44;;;;;;;7.43;7.13;;;;;;;16.10;32.46;92235.81;5091736;28;20188;-75
2023/04/15 11:15:30;;;;;;;7.30;7.00;;;;;;;16.38;32.55;92236.06;5092894;28;20220;-75
2023/04/15 11:17:58;;;;;;;8.00;7.60;;;;;;;16.92;32.92;92241.03;5091120;28;20219;-74
2023/04/15 11:20:23;;;;;;;8.80;8.30;;;;;;;16.74;34.44;92233.63;5091917;28;20233;-74